Time;durP1;ratioP1;P1;durP2;ratioP2;P2;SDS_P1;SDS_P2;PMS_P1;PMS_P2;Temp;Humidity;BMP_temperature;BMP_pressure;BME280_temperature;BME280_humidity;BME280_pressure;Samples;Min_cycle;Max_cycle;Signal;HPM_P1;HPM_P2
2023/06/27 00:02:20;;;;;;;3.47;1.40;;;19.50;60.50;;;;;;5082194;28;20047;-67
2023/06/27 00:04:47;;;;;;;2.90;1.20;;;19.40;60.50;;;;;;5082300;28;20474;-67
2023/06/27 00:07:12;;;;;;;2.90;1.00;;;19.40;60.60;;;;;;5081423;28;20020;-67
2023/06/27 00:09:38;;;;;;;2.47;1.20;;;19.40;60.70;;;;;;5079634;28;20020;-67
2023/06/27 00:12:05;;;;;;;2.33;1.30;;;19.40;60.70;;;;;;5079641;28;20024;-67
2023/06/27 00:14:36;;;;;;;1.73;1.30;;;19.40;60.80;;;;;;5080736;28;20017;-67
2023/06/27 00:17:07;;;;;;;3.30;1.43;;;19.40;60.90;;;;;;5077772;28;20024;-68
2023/06/27 00:19:33;;;;;;;1.77;1.40;;;19.30;60.90;;;;;;5082411;28;20093;-69
2023/06/27 00:21:58;;;;;;;2.35;1.20;;;19.30;61.20;;;;;;5079102;28;20028;-68
2023/06/27 00:24:24;;;;;;;2.30;1.40;;;19.30;61.30;;;;;;5081086;28;20491;-69
2023/06/27 00:26:50;;;;;;;2.20;1.50;;;19.30;61.30;;;;;;5080936;28;20081;-68
2023/06/27 00:29:15;;;;;;;1.70;1.30;;;19.30;61.50;;;;;;5082696;28;20124;-69
2023/06/27 00:31:41;;;;;;;2.45;1.48;;;19.30;61.70;;;;;;5077194;28;20113;-68
2023/06/27 00:34:07;;;;;;;2.97;1.50;;;19.30;61.80;;;;;;5085233;28;20024;-68
2023/06/27 00:36:32;;;;;;;1.45;1.33;;;19.40;61.80;;;;;;5084342;28;20024;-68
2023/06/27 00:38:58;;;;;;;3.33;1.40;;;19.40;61.80;;;;;;5081147;28;20205;-69
2023/06/27 00:41:23;;;;;;;3.47;1.70;;;19.40;61.80;;;;;;5084184;28;20145;-68
2023/06/27 00:43:49;;;;;;;3.20;1.75;;;19.40;61.90;;;;;;5080885;28;20028;-68
2023/06/27 00:46:33;;;;;;;2.80;1.70;;;19.40;62.20;;;;;;5082826;28;20110;-68
2023/06/27 00:48:59;;;;;;;2.72;1.60;;;19.40;62.30;;;;;;5082349;28;20395;-68
2023/06/27 00:51:25;;;;;;;3.42;1.55;;;19.30;62.60;;;;;;5084189;28;20020;-68
2023/06/27 00:53:51;;;;;;;2.25;1.45;;;19.30;62.80;;;;;;5082344;28;20070;-67
2023/06/27 00:56:16;;;;;;;2.45;1.65;;;19.20;62.90;;;;;;5081197;28;20032;-67
2023/06/27 00:58:42;;;;;;;2.00;1.45;;;19.20;63.20;;;;;;5081145;28;20097;-67
2023/06/27 01:01:09;;;;;;;3.25;2.00;;;19.20;63.30;;;;;;5080043;28;20048;-67
2023/06/27 01:03:35;;;;;;;3.70;1.95;;;19.20;63.50;;;;;;5079458;28;20392;-67
2023/06/27 01:06:10;;;;;;;4.13;2.05;;;19.20;63.90;;;;;;5080005;28;20083;-67
2023/06/27 01:08:42;;;;;;;4.60;2.10;;;19.20;64.00;;;;;;5077813;28;20044;-67
2023/06/27 01:11:21;;;;;;;3.40;1.90;;;19.20;64.20;;;;;;5079370;28;20059;-67
2023/06/27 01:13:54;;;;;;;3.20;1.80;;;19.10;64.30;;;;;;5073096;28;20047;-67
2023/06/27 01:16:22;;;;;;;2.00;1.80;;;19.20;64.30;;;;;;5080728;28;20012;-67
2023/06/27 01:18:49;;;;;;;2.25;1.70;;;19.20;64.30;;;;;;5078521;28;20077;-67
2023/06/27 01:21:17;;;;;;;2.92;1.70;;;19.20;64.10;;;;;;5074207;28;20033;-68
2023/06/27 01:23:55;;;;;;;2.53;1.73;;;19.20;64.20;;;;;;5077069;28;20069;-68
2023/06/27 01:26:22;;;;;;;3.65;1.80;;;19.30;64.30;;;;;;5073550;28;20086;-68
2023/06/27 01:28:48;;;;;;;3.13;1.77;;;19.30;64.30;;;;;;5084870;28;20051;-68
2023/06/27 01:31:19;;;;;;;2.70;1.73;;;19.30;64.20;;;;;;5088449;28;20081;-69
2023/06/27 01:33:48;;;;;;;2.90;1.70;;;19.30;64.20;;;;;;5073824;28;20032;-68
2023/06/27 01:36:19;;;;;;;2.50;2.05;;;19.30;64.20;;;;;;5086987;28;20031;-68
2023/06/27 01:38:50;;;;;;;4.15;2.25;;;19.20;64.50;;;;;;5072688;28;20063;-69
2023/06/27 01:41:18;;;;;;;4.53;2.67;;;19.20;64.70;;;;;;5081418;28;20021;-69
2023/06/27 01:43:45;;;;;;;3.35;2.30;;;19.10;65.30;;;;;;5078798;28;20095;-68
2023/06/27 01:46:11;;;;;;;2.72;1.90;;;19.00;65.60;;;;;;5070840;28;20082;-68
2023/06/27 01:48:40;;;;;;;2.78;2.10;;;19.00;65.70;;;;;;5074114;28;20145;-68
2023/06/27 01:51:07;;;;;;;4.57;2.30;;;18.90;66.10;;;;;;5074110;28;20063;-68
2023/06/27 01:53:34;;;;;;;4.10;2.20;;;18.80;66.30;;;;;;5076399;28;20081;-68
2023/06/27 01:55:59;;;;;;;4.32;2.70;;;18.80;66.30;;;;;;5086977;28;20555;-69
2023/06/27 01:58:25;;;;;;;4.13;2.60;;;18.90;66.40;;;;;;5073054;28;20025;-69
2023/06/27 02:00:50;;;;;;;3.17;2.08;;;18.90;66.30;;;;;;5074686;28;20099;-68
2023/06/27 02:03:16;;;;;;;2.63;2.00;;;19.00;66.20;;;;;;5077939;28;20043;-68
2023/06/27 02:05:42;;;;;;;4.68;2.20;;;19.00;66.20;;;;;;5082066;28;20073;-68
2023/06/27 02:08:07;;;;;;;3.35;2.10;;;19.10;66.30;;;;;;5088540;28;20016;-68
2023/06/27 02:10:33;;;;;;;3.42;2.30;;;19.00;66.40;;;;;;5080241;28;20068;-69
2023/06/27 02:13:00;;;;;;;3.42;2.00;;;19.10;66.50;;;;;;5095712;28;20012;-69
2023/06/27 02:15:26;;;;;;;3.17;1.77;;;19.10;66.50;;;;;;5083346;28;20027;-69
2023/06/27 02:17:52;;;;;;;2.20;1.85;;;19.10;66.50;;;;;;5074020;28;20402;-68
2023/06/27 02:20:17;;;;;;;2.67;1.80;;;19.10;66.50;;;;;;5089698;28;20027;-68
2023/06/27 02:22:43;;;;;;;3.58;2.13;;;19.20;66.60;;;;;;5079044;28;20097;-68
2023/06/27 02:25:09;;;;;;;3.28;2.17;;;19.20;66.70;;;;;;5086112;28;20028;-68
2023/06/27 02:27:34;;;;;;;2.00;1.80;;;19.20;66.70;;;;;;5094388;28;20107;-68
2023/06/27 02:30:00;;;;;;;2.97;1.80;;;19.20;66.80;;;;;;5102845;28;20405;-68
2023/06/27 02:32:25;;;;;;;2.53;1.80;;;19.20;66.70;;;;;;5108773;28;20077;-67
2023/06/27 02:34:51;;;;;;;2.53;1.88;;;19.20;66.80;;;;;;5094878;28;20034;-68
2023/06/27 02:37:16;;;;;;;4.25;1.90;;;19.20;66.80;;;;;;5087265;28;20491;-68
2023/06/27 02:39:42;;;;;;;3.05;2.00;;;19.10;66.90;;;;;;5091742;28;20030;-67
2023/06/27 02:42:07;;;;;;;3.30;2.15;;;19.10;67.00;;;;;;5099067;28;20031;-68
2023/06/27 02:44:33;;;;;;;4.28;1.98;;;19.10;67.20;;;;;;5090375;28;20025;-68
2023/06/27 02:46:59;;;;;;;3.83;1.98;;;19.10;67.30;;;;;;5093854;28;20035;-68
2023/06/27 02:49:24;;;;;;;3.72;1.80;;;19.00;67.40;;;;;;5087790;28;20065;-67
2023/06/27 02:51:50;;;;;;;2.60;1.65;;;19.00;67.40;;;;;;5087734;28;20031;-68
2023/06/27 02:54:16;;;;;;;2.95;2.20;;;19.00;67.50;;;;;;5082158;28;20024;-67
2023/06/27 02:56:41;;;;;;;1.95;1.75;;;18.90;67.50;;;;;;5086217;28;20102;-66
2023/06/27 02:59:07;;;;;;;2.95;2.10;;;18.90;67.70;;;;;;5084853;28;20029;-67
2023/06/27 03:01:32;;;;;;;3.88;1.90;;;18.90;67.90;;;;;;5087148;28;20039;-67
2023/06/27 03:03:58;;;;;;;2.97;1.90;;;18.80;68.00;;;;;;5083926;28;20051;-67
2023/06/27 03:06:24;;;;;;;2.55;1.98;;;18.80;68.20;;;;;;5090761;28;20027;-67
2023/06/27 03:08:50;;;;;;;2.65;1.70;;;18.70;68.40;;;;;;5077083;28;20098;-67
2023/06/27 03:11:15;;;;;;;3.65;2.20;;;18.70;68.50;;;;;;5088878;28;20435;-67
2023/06/27 03:13:41;;;;;;;4.00;1.92;;;18.70;68.50;;;;;;5093896;28;20027;-67
2023/06/27 03:16:06;;;;;;;2.72;1.80;;;18.70;68.40;;;;;;5097715;28;20062;-67
2023/06/27 03:18:32;;;;;;;4.78;2.08;;;18.70;68.40;;;;;;5096817;28;20024;-67
2023/06/27 03:20:57;;;;;;;3.50;2.03;;;18.70;68.50;;;;;;5080736;28;20033;-67
2023/06/27 03:23:23;;;;;;;3.33;2.08;;;18.60;68.70;;;;;;5086943;28;20028;-67
2023/06/27 03:25:49;;;;;;;2.85;1.83;;;18.60;68.80;;;;;;5089366;28;20028;-67
2023/06/27 03:28:14;;;;;;;3.78;2.30;;;18.50;68.80;;;;;;5104869;28;20095;-68
2023/06/27 03:30:43;;;;;;;2.70;1.90;;;18.50;69.00;;;;;;5083442;28;20047;-68
2023/06/27 03:33:09;;;;;;;3.53;2.10;;;18.50;69.10;;;;;;5086350;28;20048;-68
2023/06/27 03:35:35;;;;;;;2.78;1.85;;;18.50;69.20;;;;;;5087416;28;20025;-68
2023/06/27 03:38:02;;;;;;;3.47;1.83;;;18.50;69.30;;;;;;5078705;28;20039;-68
2023/06/27 03:40:28;;;;;;;3.22;1.85;;;18.50;69.30;;;;;;5097803;28;20098;-68
2023/06/27 03:42:55;;;;;;;5.22;2.38;;;18.50;69.40;;;;;;5095425;28;20099;-68
2023/06/27 03:45:21;;;;;;;3.53;2.00;;;18.50;69.40;;;;;;5087227;28;20036;-68
2023/06/27 03:47:47;;;;;;;3.22;1.90;;;18.50;69.50;;;;;;5076629;28;20491;-68
2023/06/27 03:50:12;;;;;;;3.25;2.00;;;18.50;69.60;;;;;;5079025;28;20039;-68
2023/06/27 03:52:38;;;;;;;3.30;2.10;;;18.50;69.50;;;;;;5089176;28;20849;-68
2023/06/27 03:55:05;;;;;;;3.63;1.90;;;18.50;69.50;;;;;;5094764;28;20042;-68
2023/06/27 03:57:31;;;;;;;3.25;2.00;;;18.50;69.60;;;;;;5084182;28;20090;-68
2023/06/27 03:59:56;;;;;;;3.05;2.00;;;18.60;69.60;;;;;;5083305;28;20055;-68
2023/06/27 04:02:22;;;;;;;3.70;2.30;;;18.60;69.50;;;;;;5087405;28;20027;-68
2023/06/27 04:04:48;;;;;;;3.22;1.90;;;18.70;69.50;;;;;;5085653;28;20147;-68
2023/06/27 04:07:14;;;;;;;3.42;1.75;;;18.70;69.50;;;;;;5086855;28;20035;-67
2023/06/27 04:09:40;;;;;;;3.65;2.08;;;18.70;69.50;;;;;;5105224;28;20187;-68
2023/06/27 04:12:06;;;;;;;3.30;1.73;;;18.80;69.50;;;;;;5084401;28;20078;-68
2023/06/27 04:14:32;;;;;;;3.25;2.20;;;18.80;69.50;;;;;;5106941;28;20023;-68
2023/06/27 04:16:57;;;;;;;4.47;2.35;;;18.90;69.50;;;;;;5091177;28;20140;-68
2023/06/27 04:19:23;;;;;;;5.05;2.10;;;18.90;69.40;;;;;;5092152;28;20103;-68
2023/06/27 04:21:48;;;;;;;3.78;1.90;;;18.90;69.30;;;;;;5086108;28;20024;-68
2023/06/27 04:24:14;;;;;;;3.72;1.80;;;19.00;69.20;;;;;;5076322;28;20039;-68
2023/06/27 04:26:42;;;;;;;4.43;1.88;;;19.10;69.30;;;;;;5077838;28;20487;-68
2023/06/27 04:29:08;;;;;;;6.72;3.28;;;19.20;69.20;;;;;;5090814;28;20032;-68
2023/06/27 04:31:33;;;;;;;4.40;2.50;;;19.10;69.80;;;;;;5091161;28;20023;-68
2023/06/27 04:33:59;;;;;;;6.65;3.30;;;19.00;70.40;;;;;;5093236;28;20024;-68
2023/06/27 04:36:28;;;;;;;3.70;2.35;;;19.00;70.90;;;;;;5078699;28;20015;-68
2023/06/27 04:38:54;;;;;;;4.03;2.10;;;18.90;71.00;;;;;;5086575;28;20030;-68
2023/06/27 04:41:20;;;;;;;4.32;2.10;;;18.90;70.80;;;;;;5083965;28;20020;-68
2023/06/27 04:43:45;;;;;;;2.72;1.70;;;19.10;70.70;;;;;;5097489;28;20047;-68
2023/06/27 04:46:11;;;;;;;3.13;2.00;;;19.20;70.50;;;;;;5094708;28;20100;-68
2023/06/27 04:48:37;;;;;;;5.30;2.03;;;19.30;70.30;;;;;;5084321;28;20054;-68
2023/06/27 04:51:03;;;;;;;5.05;2.10;;;19.30;70.30;;;;;;5077051;28;20024;-68
2023/06/27 04:53:29;;;;;;;3.25;2.03;;;19.30;70.20;;;;;;5082790;28;20028;-68
2023/06/27 04:55:55;;;;;;;3.50;2.00;;;19.40;70.10;;;;;;5093960;28;20388;-68
2023/06/27 04:58:20;;;;;;;4.47;2.42;;;19.50;70.00;;;;;;5084736;28;20074;-68
2023/06/27 05:00:47;;;;;;;4.38;2.58;;;19.50;69.80;;;;;;5078483;28;20033;-68
2023/06/27 05:03:13;;;;;;;5.75;2.63;;;19.50;70.00;;;;;;5079108;28;20495;-68
2023/06/27 05:05:39;;;;;;;6.20;2.25;;;19.40;70.10;;;;;;5081182;28;20080;-69
2023/06/27 05:08:06;;;;;;;5.00;2.35;;;19.40;70.10;;;;;;5079559;28;20550;-68
2023/06/27 05:10:32;;;;;;;3.72;2.10;;;19.40;70.30;;;;;;5096438;28;20051;-68
2023/06/27 05:12:58;;;;;;;4.57;2.00;;;19.40;70.20;;;;;;5092996;28;20053;-69
2023/06/27 05:15:24;;;;;;;4.82;2.10;;;19.40;70.20;;;;;;5092899;28;20054;-68
2023/06/27 05:18:16;;;;;;;3.78;2.22;;;19.40;70.20;;;;;;5086238;28;20111;-68
2023/06/27 05:20:42;;;;;;;4.68;2.20;;;19.50;70.30;;;;;;5062274;28;20039;-68
2023/06/27 05:23:08;;;;;;;3.47;2.00;;;19.40;70.30;;;;;;5086299;28;20048;-69
2023/06/27 05:25:34;;;;;;;4.95;2.58;;;19.40;70.40;;;;;;5090412;28;20020;-68
2023/06/27 05:28:00;;;;;;;4.20;2.42;;;19.40;70.40;;;;;;5079103;28;20074;-69
2023/06/27 05:30:26;;;;;;;4.95;2.10;;;19.40;70.50;;;;;;5098907;28;20052;-69
2023/06/27 05:32:52;;;;;;;4.35;2.00;;;19.40;70.60;;;;;;5086728;28;20027;-69
2023/06/27 05:35:18;;;;;;;5.20;2.40;;;19.40;70.50;;;;;;5086500;28;20020;-69
2023/06/27 05:37:44;;;;;;;3.90;2.22;;;19.50;70.60;;;;;;5078542;28;20486;-69
2023/06/27 05:40:10;;;;;;;5.20;2.60;;;19.60;70.40;;;;;;5075380;28;20032;-69
2023/06/27 05:42:35;;;;;;;4.93;2.30;;;19.70;70.40;;;;;;5089332;28;20028;-69
2023/06/27 05:45:02;;;;;;;6.20;2.55;;;19.80;70.20;;;;;;5076471;28;20055;-69
2023/06/27 05:47:27;;;;;;;4.95;2.15;;;19.90;70.10;;;;;;5070122;28;20035;-69
2023/06/27 05:49:53;;;;;;;5.35;2.33;;;20.10;69.90;;;;;;5070243;28;20099;-69
2023/06/27 05:52:18;;;;;;;4.18;2.00;;;20.20;69.50;;;;;;5077817;28;20035;-70
2023/06/27 05:54:44;;;;;;;3.35;2.17;;;20.40;69.30;;;;;;5089601;28;20031;-69
2023/06/27 05:57:10;;;;;;;4.18;2.15;;;20.50;69.10;;;;;;5078569;28;20512;-69
2023/06/27 05:59:36;;;;;;;5.03;2.22;;;20.50;68.90;;;;;;5083671;28;20039;-69
2023/06/27 06:02:02;;;;;;;5.63;2.30;;;20.60;68.80;;;;;;5073906;28;20021;-69
2023/06/27 06:04:28;;;;;;;4.15;2.15;;;20.70;68.60;;;;;;5082500;28;20095;-68
2023/06/27 06:06:53;;;;;;;4.28;2.00;;;20.80;68.50;;;;;;5079032;28;20172;-68
2023/06/27 06:09:19;;;;;;;4.10;2.00;;;20.80;68.30;;;;;;5075663;28;20098;-68
2023/06/27 06:11:44;;;;;;;4.03;1.80;;;20.90;68.10;;;;;;5077982;28;20016;-69
2023/06/27 06:14:10;;;;;;;4.45;1.65;;;21.10;68.10;;;;;;5080484;28;20031;-68
2023/06/27 06:16:36;;;;;;;4.53;1.88;;;21.10;67.80;;;;;;5085019;28;20021;-69
2023/06/27 06:19:03;;;;;;;6.32;2.40;;;21.20;67.70;;;;;;5077677;28;20036;-69
2023/06/27 06:21:30;;;;;;;5.13;2.35;;;21.30;67.60;;;;;;5086520;28;20020;-69
2023/06/27 06:23:56;;;;;;;5.22;2.20;;;21.40;67.50;;;;;;5085905;28;20081;-69
2023/06/27 06:26:21;;;;;;;4.18;2.30;;;21.40;67.30;;;;;;5072702;28;20033;-69
2023/06/27 06:28:47;;;;;;;5.70;2.28;;;21.40;67.40;;;;;;5076398;28;20099;-69
2023/06/27 06:31:16;;;;;;;4.65;2.05;;;21.60;67.20;;;;;;5083403;28;20078;-69
2023/06/27 06:33:45;;;;;;;4.72;1.90;;;21.80;66.80;;;;;;5080796;28;20017;-68
2023/06/27 06:36:12;;;;;;;4.10;1.90;;;22.00;66.60;;;;;;5084440;28;20555;-69
2023/06/27 06:38:38;;;;;;;5.00;1.80;;;22.20;66.10;;;;;;5078414;28;20132;-69
2023/06/27 06:41:04;;;;;;;4.05;1.65;;;22.30;65.60;;;;;;5068427;28;20028;-68
2023/06/27 06:43:30;;;;;;;4.45;1.60;;;22.50;65.00;;;;;;5075163;28;20230;-68
2023/06/27 06:45:56;;;;;;;5.82;1.88;;;22.70;64.70;;;;;;5089682;28;20036;-68
2023/06/27 06:48:22;;;;;;;3.63;1.75;;;22.90;64.20;;;;;;5085505;28;20103;-68
2023/06/27 06:50:50;;;;;;;5.35;1.70;;;23.10;63.60;;;;;;5079670;28;20012;-68
2023/06/27 06:53:16;;;;;;;3.75;1.70;;;23.30;63.10;;;;;;5084391;28;20056;-68
2023/06/27 06:55:41;;;;;;;5.32;1.85;;;23.50;63.20;;;;;;5074804;28;20059;-68
2023/06/27 06:58:07;;;;;;;5.15;1.70;;;23.50;61.60;;;;;;5084830;28;20522;-68
2023/06/27 07:00:32;;;;;;;3.10;1.60;;;23.50;61.10;;;;;;5078273;28;20503;-69
2023/06/27 07:02:58;;;;;;;3.50;1.30;;;23.50;60.90;;;;;;5082200;28;20021;-70
2023/06/27 07:05:24;;;;;;;4.78;1.67;;;23.70;60.90;;;;;;5086486;28;20024;-68
2023/06/27 07:07:49;;;;;;;5.78;2.10;;;23.70;60.40;;;;;;5088152;28;20590;-69
2023/06/27 07:10:15;;;;;;;4.68;1.90;;;23.70;59.60;;;;;;5093835;28;20028;-69
2023/06/27 07:12:41;;;;;;;3.78;1.60;;;23.60;59.60;;;;;;5082386;28;20027;-69
2023/06/27 07:15:07;;;;;;;2.78;1.70;;;23.70;59.40;;;;;;5087052;28;20490;-69
2023/06/27 07:17:33;;;;;;;3.28;1.40;;;23.80;59.30;;;;;;5094089;28;20390;-69
2023/06/27 07:19:59;;;;;;;3.45;1.60;;;23.80;59.00;;;;;;5090151;28;20035;-69
2023/06/27 07:22:25;;;;;;;4.45;1.80;;;23.90;59.50;;;;;;5093959;28;20027;-69
2023/06/27 07:24:50;;;;;;;4.22;2.22;;;24.00;58.40;;;;;;5079084;28;20028;-69
2023/06/27 07:27:19;;;;;;;4.93;1.70;;;23.90;58.20;;;;;;5103548;28;20031;-69
2023/06/27 07:29:44;;;;;;;4.63;1.83;;;23.90;58.20;;;;;;5103051;28;20020;-69
2023/06/27 07:32:11;;;;;;;4.65;1.73;;;24.00;58.10;;;;;;5096791;28;20058;-69
2023/06/27 07:34:39;;;;;;;4.55;1.80;;;24.10;57.70;;;;;;5077287;28;20149;-69
2023/06/27 07:37:05;;;;;;;3.75;1.58;;;24.20;57.60;;;;;;5087734;28;20068;-69
2023/06/27 07:39:31;;;;;;;2.95;1.40;;;24.50;57.20;;;;;;5086076;28;20035;-69
2023/06/27 07:41:57;;;;;;;3.97;1.67;;;24.60;56.70;;;;;;5095057;28;20020;-69
2023/06/27 07:44:22;;;;;;;3.60;1.70;;;24.80;56.20;;;;;;5086618;28;20028;-69
2023/06/27 07:46:48;;;;;;;4.20;1.73;;;24.80;55.70;;;;;;5097700;28;20398;-69
2023/06/27 07:49:15;;;;;;;1.42;1.10;;;24.80;55.40;;;;;;5083780;28;20071;-69
2023/06/27 07:51:41;;;;;;;2.80;1.25;;;24.70;55.10;;;;;;5086830;28;20106;-69
2023/06/27 07:54:07;;;;;;;3.78;1.30;;;24.70;54.70;;;;;;5082439;28;20202;-68
2023/06/27 07:56:32;;;;;;;3.38;1.30;;;24.80;54.10;;;;;;5083084;28;20019;-69
2023/06/27 07:58:59;;;;;;;3.90;1.13;;;25.00;53.70;;;;;;5081192;28;20028;-69
2023/06/27 08:01:25;;;;;;;1.88;1.02;;;25.00;53.00;;;;;;5079697;28;20012;-69
2023/06/27 08:03:51;;;;;;;1.20;0.90;;;25.20;52.80;;;;;;5088707;28;20513;-69
2023/06/27 08:06:16;;;;;;;4.47;0.95;;;25.10;52.10;;;;;;5083695;28;20042;-69
2023/06/27 08:08:42;;;;;;;2.25;1.00;;;25.00;52.10;;;;;;5087589;28;20032;-69
2023/06/27 08:11:08;;;;;;;1.83;0.88;;;25.00;51.80;;;;;;5083922;28;20024;-69
2023/06/27 08:13:35;;;;;;;2.63;1.30;;;25.10;52.00;;;;;;5086144;28;20050;-69
2023/06/27 08:16:01;;;;;;;2.70;1.00;;;25.00;51.90;;;;;;5084740;28;20031;-69
2023/06/27 08:18:27;;;;;;;2.75;1.50;;;25.00;52.00;;;;;;5086995;28;20024;-68
2023/06/27 08:20:53;;;;;;;4.68;1.13;;;25.00;51.60;;;;;;5085011;28;20027;-68
2023/06/27 08:23:18;;;;;;;4.25;1.52;;;25.00;51.50;;;;;;5079920;28;20035;-69
2023/06/27 08:25:44;;;;;;;2.95;1.17;;;25.10;51.20;;;;;;5079278;28;20052;-69
2023/06/27 08:28:09;;;;;;;3.67;1.30;;;25.10;51.40;;;;;;5086115;28;20027;-70
2023/06/27 08:30:35;;;;;;;2.30;1.10;;;25.20;51.30;;;;;;5087814;28;20024;-69
2023/06/27 08:33:00;;;;;;;2.35;0.98;;;25.20;50.90;;;;;;5086240;28;20482;-69
2023/06/27 08:35:26;;;;;;;3.40;1.15;;;25.20;51.10;;;;;;5092688;28;20386;-69
2023/06/27 08:37:52;;;;;;;2.08;0.90;;;25.10;51.10;;;;;;5083120;28;20089;-69
2023/06/27 08:40:25;;;;;;;3.05;1.10;;;25.20;51.10;;;;;;5088717;28;20020;-69
2023/06/27 08:42:51;;;;;;;2.70;1.20;;;25.10;50.60;;;;;;5089927;28;20102;-69
2023/06/27 08:45:16;;;;;;;2.40;1.00;;;25.10;50.40;;;;;;5092520;28;20023;-69
2023/06/27 08:47:44;;;;;;;3.05;1.10;;;25.10;50.40;;;;;;5089127;28;20044;-69
2023/06/27 08:50:13;;;;;;;2.40;1.15;;;25.20;50.30;;;;;;5089603;28;20057;-68
2023/06/27 08:52:43;;;;;;;2.83;1.10;;;25.20;50.20;;;;;;5091565;28;20032;-69
2023/06/27 08:55:19;;;;;;;1.75;0.95;;;25.30;50.30;;;;;;5094896;28;20028;-69
2023/06/27 08:57:46;;;;;;;2.35;1.10;;;25.40;50.30;;;;;;5088777;28;20035;-69
2023/06/27 09:00:19;;;;;;;2.60;1.00;;;25.40;50.30;;;;;;5087268;28;20020;-68
2023/06/27 09:02:46;;;;;;;2.42;1.15;;;25.50;50.20;;;;;;5087492;28;20028;-68
2023/06/27 09:05:12;;;;;;;3.47;0.98;;;25.50;50.10;;;;;;5089832;28;20099;-69
2023/06/27 09:07:38;;;;;;;1.98;1.20;;;25.50;50.10;;;;;;5087060;28;20119;-69
2023/06/27 09:10:04;;;;;;;2.00;1.00;;;25.40;50.00;;;;;;5088247;28;20060;-69
2023/06/27 09:12:31;;;;;;;1.55;1.02;;;25.30;50.30;;;;;;5091644;28;20027;-69
2023/06/27 09:14:57;;;;;;;1.67;1.00;;;25.30;50.40;;;;;;5092573;28;20016;-69
2023/06/27 09:17:22;;;;;;;2.15;0.93;;;25.30;50.50;;;;;;5087941;28;20153;-69
2023/06/27 09:19:48;;;;;;;1.80;0.90;;;25.20;51.30;;;;;;5090957;28;20051;-69
2023/06/27 09:22:15;;;;;;;1.85;0.90;;;25.20;50.90;;;;;;5088613;28;20564;-69
2023/06/27 09:24:41;;;;;;;1.40;0.80;;;25.10;50.90;;;;;;5084115;28;20032;-68
2023/06/27 09:27:29;;;;;;;2.00;0.88;;;25.10;51.00;;;;;;5088550;28;20061;-68
2023/06/27 09:29:59;;;;;;;1.90;0.90;;;24.90;50.70;;;;;;5092308;28;20028;-68
2023/06/27 09:32:24;;;;;;;1.75;0.75;;;24.60;50.70;;;;;;5093094;28;20023;-68
2023/06/27 09:34:50;;;;;;;2.83;0.95;;;24.50;50.90;;;;;;5089640;28;20027;-69
2023/06/27 09:37:19;;;;;;;2.10;0.80;;;24.40;50.80;;;;;;5085185;28;20017;-69
2023/06/27 09:39:45;;;;;;;3.00;0.82;;;24.30;50.80;;;;;;5090950;28;20036;-69
2023/06/27 09:42:10;;;;;;;1.77;0.80;;;24.20;50.70;;;;;;5084893;28;20020;-68
2023/06/27 09:44:36;;;;;;;1.63;1.10;;;24.20;50.80;;;;;;5088992;28;20548;-69
2023/06/27 09:47:03;;;;;;;1.27;0.60;;;24.20;50.60;;;;;;5087529;28;20055;-69
2023/06/27 09:49:29;;;;;;;1.67;0.90;;;24.20;50.60;;;;;;5089468;28;20482;-69
2023/06/27 09:51:55;;;;;;;2.60;1.17;;;24.20;50.30;;;;;;5087839;28;20031;-69
2023/06/27 09:54:22;;;;;;;3.63;1.20;;;24.20;50.20;;;;;;5086305;28;20024;-70
2023/06/27 09:56:51;;;;;;;1.65;0.88;;;24.20;49.90;;;;;;5088254;28;20024;-70
2023/06/27 09:59:20;;;;;;;2.03;0.90;;;24.20;49.90;;;;;;5093892;28;20032;-69
2023/06/27 10:01:47;;;;;;;2.60;0.90;;;24.10;49.50;;;;;;5089814;28;20027;-69
2023/06/27 10:04:12;;;;;;;1.40;0.80;;;24.00;49.60;;;;;;5090285;28;20020;-68
2023/06/27 10:06:38;;;;;;;1.33;0.82;;;24.10;49.70;;;;;;5091891;28;20070;-68
2023/06/27 10:09:05;;;;;;;1.20;0.80;;;24.20;49.70;;;;;;5089844;28;20035;-68
2023/06/27 10:11:31;;;;;;;1.73;0.82;;;24.20;49.40;;;;;;5087387;28;20048;-70
2023/06/27 10:13:57;;;;;;;0.93;0.63;;;24.40;49.20;;;;;;5088997;28;20082;-68
2023/06/27 10:16:22;;;;;;;1.73;0.80;;;24.50;49.00;;;;;;5088117;28;20407;-68
2023/06/27 10:18:48;;;;;;;2.15;0.70;;;24.60;48.10;;;;;;5087967;28;20032;-68
2023/06/27 10:21:15;;;;;;;1.48;0.70;;;24.80;47.60;;;;;;5090787;28;20410;-68
2023/06/27 10:23:45;;;;;;;2.05;0.52;;;25.00;47.10;;;;;;5082643;28;20070;-68
2023/06/27 10:26:11;;;;;;;1.08;0.77;;;25.20;47.00;;;;;;5089754;28;20490;-68
2023/06/27 10:28:37;;;;;;;1.95;0.90;;;25.30;46.90;;;;;;5083743;28;20038;-68
2023/06/27 10:31:04;;;;;;;1.13;0.60;;;25.30;46.60;;;;;;5089262;28;20071;-68
2023/06/27 10:33:32;;;;;;;2.03;0.88;;;25.30;46.40;;;;;;5086280;28;20027;-68
2023/06/27 10:36:03;;;;;;;1.02;0.68;;;25.40;46.30;;;;;;5091440;28;20032;-69
2023/06/27 10:38:34;;;;;;;2.00;0.80;;;25.40;46.20;;;;;;5083152;28;20063;-69
2023/06/27 10:41:06;;;;;;;0.93;0.68;;;25.40;46.10;;;;;;5081077;28;20532;-69
2023/06/27 10:43:53;;;;;;;1.77;0.90;;;25.30;46.20;;;;;;5093243;28;20047;-68
2023/06/27 10:46:27;;;;;;;2.25;0.85;;;25.30;46.30;;;;;;5091091;28;20028;-68
2023/06/27 10:48:59;;;;;;;1.67;0.85;;;25.20;46.30;;;;;;5093709;28;20016;-68
2023/06/27 10:51:34;;;;;;;2.35;0.95;;;25.20;46.10;;;;;;5088090;28;20073;-68
2023/06/27 10:54:11;;;;;;;1.48;0.70;;;25.40;46.00;;;;;;5090506;28;20024;-69
2023/06/27 10:56:42;;;;;;;4.50;0.75;;;25.40;45.80;;;;;;5090926;28;20103;-68
2023/06/27 10:59:26;;;;;;;2.45;0.95;;;25.40;45.50;;;;;;5090000;28;20077;-68
2023/06/27 11:02:07;;;;;;;1.42;0.77;;;25.50;45.40;;;;;;5090726;28;20407;-68
2023/06/27 11:04:43;;;;;;;2.00;0.80;;;25.40;45.60;;;;;;5092334;28;20031;-68
2023/06/27 11:07:17;;;;;;;1.98;0.60;;;25.40;45.70;;;;;;5089014;28;20471;-68
2023/06/27 11:09:52;;;;;;;2.40;0.82;;;25.40;45.40;;;;;;5093300;28;20149;-68
2023/06/27 11:12:19;;;;;;;1.77;0.80;;;25.30;45.50;;;;;;5093087;28;20020;-69
2023/06/27 11:14:45;;;;;;;1.27;0.70;;;25.30;45.60;;;;;;5094014;28;20004;-69
2023/06/27 11:17:12;;;;;;;2.90;0.75;;;25.40;45.50;;;;;;5090392;28;20028;-68
2023/06/27 11:19:39;;;;;;;0.90;0.70;;;25.30;45.10;;;;;;5095294;28;20020;-69
2023/06/27 11:22:06;;;;;;;2.35;0.90;;;25.40;45.40;;;;;;5095512;28;20409;-70
2023/06/27 11:24:32;;;;;;;2.45;0.80;;;25.40;44.90;;;;;;5091277;28;20023;-68
2023/06/27 11:27:00;;;;;;;1.92;0.95;;;25.40;44.90;;;;;;5091471;28;20132;-69
2023/06/27 11:29:27;;;;;;;1.55;0.80;;;25.50;44.80;;;;;;5092885;28;20540;-69
2023/06/27 11:31:54;;;;;;;1.65;0.75;;;25.50;43.80;;;;;;5090516;28;20086;-70
2023/06/27 11:34:20;;;;;;;1.25;0.70;;;25.60;43.70;;;;;;5092515;28;20058;-69
2023/06/27 11:36:46;;;;;;;1.60;0.70;;;25.70;43.30;;;;;;5087828;28;20494;-69
2023/06/27 11:39:12;;;;;;;3.25;0.82;;;25.70;43.30;;;;;;5090415;28;20051;-70
2023/06/27 11:41:39;;;;;;;2.22;0.90;;;25.80;42.90;;;;;;5093921;28;20024;-69
2023/06/27 11:44:09;;;;;;;2.00;0.90;;;26.00;42.60;;;;;;5091829;28;20043;-69
2023/06/27 11:46:35;;;;;;;1.80;0.95;;;26.10;42.50;;;;;;5087909;28;20529;-68
2023/06/27 11:49:01;;;;;;;2.03;0.70;;;26.10;42.10;;;;;;5096436;28;20057;-70
2023/06/27 11:51:38;;;;;;;1.30;0.73;;;26.20;42.30;;;;;;5092201;28;20024;-70
2023/06/27 11:54:06;;;;;;;1.80;0.70;;;26.30;42.20;;;;;;5088413;28;20028;-70
2023/06/27 11:56:32;;;;;;;0.90;0.60;;;26.40;42.20;;;;;;5092162;28;20091;-69
2023/06/27 11:58:59;;;;;;;2.50;0.70;;;26.70;42.20;;;;;;5087829;28;20562;-68
2023/06/27 12:01:26;;;;;;;1.95;0.80;;;26.90;42.30;;;;;;5090969;28;20099;-68
2023/06/27 12:03:52;;;;;;;1.20;0.70;;;26.90;42.00;;;;;;5090383;28;20439;-68
2023/06/27 12:06:32;;;;;;;0.77;0.60;;;26.90;42.10;;;;;;5091691;28;20051;-68
2023/06/27 12:08:58;;;;;;;2.55;0.80;;;27.00;41.70;;;;;;5086201;28;20036;-68
2023/06/27 12:11:36;;;;;;;1.67;0.80;;;26.70;41.20;;;;;;5089131;28;20099;-68
2023/06/27 12:14:02;;;;;;;1.80;0.90;;;26.50;41.50;;;;;;5093405;28;20192;-68
2023/06/27 12:16:32;;;;;;;2.05;0.82;;;26.30;41.70;;;;;;5093833;28;20019;-68
2023/06/27 12:19:19;;;;;;;2.40;0.60;;;26.20;42.10;;;;;;5090308;28;20115;-68
2023/06/27 12:21:46;;;;;;;1.33;0.75;;;26.00;42.60;;;;;;5091398;28;20062;-69
2023/06/27 12:24:11;;;;;;;1.75;1.02;;;26.00;42.80;;;;;;5090753;28;20053;-68
2023/06/27 12:26:37;;;;;;;2.75;0.80;;;26.00;42.60;;;;;;5096574;28;20483;-68
2023/06/27 12:29:04;;;;;;;2.35;0.80;;;26.00;42.60;;;;;;5084743;28;20406;-68
2023/06/27 12:31:30;;;;;;;1.75;0.80;;;26.00;42.50;;;;;;5087942;28;20494;-68
2023/06/27 12:33:57;;;;;;;0.90;0.70;;;26.00;42.00;;;;;;5090016;28;20020;-68
2023/06/27 12:36:24;;;;;;;1.30;0.70;;;26.00;42.10;;;;;;5091519;28;20028;-68
2023/06/27 12:38:50;;;;;;;3.45;0.80;;;26.00;42.30;;;;;;5086584;28;20031;-69
2023/06/27 12:41:20;;;;;;;2.70;0.85;;;26.10;42.50;;;;;;5091820;28;20032;-68
2023/06/27 12:43:45;;;;;;;1.45;0.70;;;26.10;42.60;;;;;;5086113;28;20024;-69
2023/06/27 12:46:12;;;;;;;2.72;0.93;;;26.20;42.90;;;;;;5085420;28;20772;-69
2023/06/27 12:48:38;;;;;;;1.17;0.80;;;26.20;42.70;;;;;;5086130;28;20024;-68